Time;durP1;ratioP1;P1;durP2;ratioP2;P2;SDS_P1;SDS_P2;PMS_P1;PMS_P2;Temp;Humidity;BMP_temperature;BMP_pressure;BME280_temperature;BME280_humidity;BME280_pressure;Samples;Min_cycle;Max_cycle;Signal;HPM_P1;HPM_P2
2021/07/17 00:02:22;;;;;;;15.40;4.90;;;16.30;99.90;;;;;;5014002;28;20183;-88
2021/07/17 00:04:48;;;;;;;4.30;3.37;;;16.30;99.90;;;;;;5003522;28;20210;-87
2021/07/17 00:07:15;;;;;;;6.83;2.73;;;16.30;99.90;;;;;;4990704;28;20223;-87
2021/07/17 00:09:41;;;;;;;10.77;3.43;;;16.30;99.90;;;;;;4993729;28;20265;-87
2021/07/17 00:12:07;;;;;;;11.00;3.07;;;16.20;99.90;;;;;;4990707;28;21319;-88
2021/07/17 00:14:34;;;;;;;4.23;2.53;;;16.20;99.90;;;;;;5023073;28;20233;-86
2021/07/17 00:16:59;;;;;;;15.70;5.03;;;16.30;99.90;;;;;;4996648;28;20182;-88
2021/07/17 00:19:25;;;;;;;11.33;2.93;;;16.30;99.90;;;;;;5012051;28;20808;-88
2021/07/17 00:21:51;;;;;;;8.87;3.47;;;16.30;99.90;;;;;;5013488;28;20224;-87
2021/07/17 00:24:18;;;;;;;5.30;1.87;;;16.20;99.90;;;;;;4996059;28;20214;-87
2021/07/17 00:26:44;;;;;;;5.83;3.70;;;16.30;99.90;;;;;;5036059;28;20253;-87
2021/07/17 00:29:09;;;;;;;5.23;2.93;;;16.30;99.90;;;;;;4996652;28;20225;-87
2021/07/17 00:31:35;;;;;;;10.23;3.37;;;16.40;99.90;;;;;;5003348;28;20210;-87
2021/07/17 00:34:01;;;;;;;8.43;3.20;;;16.40;99.90;;;;;;5008472;28;20576;-88
2021/07/17 00:36:28;;;;;;;9.80;1.93;;;16.40;99.90;;;;;;5000952;28;20253;-86
2021/07/17 00:38:53;;;;;;;13.37;4.47;;;16.40;99.90;;;;;;4992865;28;20223;-87
2021/07/17 00:41:19;;;;;;;16.67;2.60;;;16.30;99.90;;;;;;5009643;28;20566;-87
2021/07/17 00:43:45;;;;;;;12.50;3.43;;;16.30;99.90;;;;;;5008516;28;20211;-88
2021/07/17 00:46:11;;;;;;;4.23;1.67;;;16.40;99.90;;;;;;4991946;28;20219;-87
2021/07/17 00:48:38;;;;;;;8.10;2.63;;;16.40;99.90;;;;;;4998765;28;20234;-87
2021/07/17 00:51:04;;;;;;;9.97;3.27;;;16.40;99.90;;;;;;5003073;28;20238;-89
2021/07/17 00:53:30;;;;;;;8.40;3.37;;;16.50;99.90;;;;;;5009624;28;20217;-87
2021/07/17 00:55:57;;;;;;;8.00;2.53;;;16.50;99.90;;;;;;5015530;28;20190;-86
2021/07/17 00:58:27;;;;;;;11.47;2.77;;;16.50;99.90;;;;;;5007043;28;20219;-87
2021/07/17 01:00:54;;;;;;;9.83;2.67;;;16.50;99.90;;;;;;5018114;28;20214;-88
2021/07/17 01:03:20;;;;;;;8.10;3.23;;;16.40;99.90;;;;;;5016368;28;20230;-89
2021/07/17 01:05:47;;;;;;;9.23;3.10;;;16.50;99.90;;;;;;5007639;28;20218;-87
2021/07/17 01:08:14;;;;;;;11.93;2.73;;;16.50;99.90;;;;;;5018020;28;20282;-87
2021/07/17 01:10:40;;;;;;;6.13;3.37;;;16.50;99.90;;;;;;5015754;28;20219;-89
2021/07/17 01:13:06;;;;;;;11.97;3.17;;;16.50;99.90;;;;;;5008288;28;20207;-89
2021/07/17 01:15:32;;;;;;;5.77;1.70;;;16.50;99.90;;;;;;4991800;28;20237;-88
2021/07/17 01:17:58;;;;;;;8.90;2.87;;;16.40;99.90;;;;;;4999465;28;20245;-87
2021/07/17 01:20:24;;;;;;;13.40;3.13;;;16.50;99.90;;;;;;5008487;28;20203;-88
2021/07/17 01:22:51;;;;;;;10.07;2.67;;;16.50;99.90;;;;;;5009659;28;20530;-88
2021/07/17 01:25:20;;;;;;;8.63;2.30;;;16.50;99.90;;;;;;5001150;28;20210;-86
2021/07/17 01:27:47;;;;;;;6.30;2.47;;;16.50;99.90;;;;;;5016824;28;20217;-87
2021/07/17 01:30:18;;;;;;;10.67;2.67;;;16.50;99.90;;;;;;5016016;28;20229;-87
2021/07/17 01:32:44;;;;;;;10.90;2.80;;;16.50;99.90;;;;;;5018166;28;20670;-87
2021/07/17 01:35:12;;;;;;;17.93;2.63;;;16.50;99.90;;;;;;5008150;28;20239;-85
2021/07/17 01:37:39;;;;;;;6.63;2.63;;;16.60;99.90;;;;;;5008315;28;20206;-86
2021/07/17 01:40:10;;;;;;;9.90;2.70;;;16.60;99.90;;;;;;5015198;28;20277;-89
2021/07/17 01:42:37;;;;;;;9.17;2.83;;;16.60;99.90;;;;;;5016162;28;20895;-88
2021/07/17 01:45:08;;;;;;;7.83;2.20;;;16.60;99.90;;;;;;5014764;28;20261;-88
2021/07/17 01:47:36;;;;;;;9.53;2.67;;;16.50;99.90;;;;;;5017228;28;20612;-87
2021/07/17 01:50:04;;;;;;;4.13;1.73;;;16.60;99.90;;;;;;5000825;28;20194;-87
2021/07/17 01:52:29;;;;;;;5.70;2.37;;;16.60;99.90;;;;;;5008195;28;20246;-86
2021/07/17 01:54:55;;;;;;;12.53;2.90;;;16.50;99.90;;;;;;5007237;28;20654;-87
2021/07/17 01:57:21;;;;;;;6.53;2.33;;;16.50;99.90;;;;;;4991668;28;20218;-89
2021/07/17 01:59:47;;;;;;;11.30;2.53;;;16.50;99.90;;;;;;5016289;28;20286;-85
2021/07/17 02:02:13;;;;;;;6.80;2.43;;;16.50;99.90;;;;;;4991352;28;20190;-87
2021/07/17 02:04:39;;;;;;;4.30;2.17;;;16.50;99.90;;;;;;5014539;28;20227;-87
2021/07/17 02:07:06;;;;;;;12.17;2.63;;;16.50;99.90;;;;;;4991089;28;20243;-86
2021/07/17 02:09:34;;;;;;;23.17;3.10;;;16.50;99.90;;;;;;5007713;28;20219;-86
2021/07/17 02:12:03;;;;;;;5.07;2.27;;;16.50;99.90;;;;;;4999374;28;20215;-86
2021/07/17 02:14:37;;;;;;;8.93;3.50;;;16.50;99.90;;;;;;5017992;28;20647;-87
2021/07/17 02:17:04;;;;;;;12.10;2.77;;;16.40;99.90;;;;;;5015216;28;20290;-90
2021/07/17 02:19:30;;;;;;;7.70;3.23;;;16.40;99.90;;;;;;4991389;28;20210;-87
2021/07/17 02:21:56;;;;;;;12.13;2.43;;;16.40;99.90;;;;;;5007982;28;20224;-86
2021/07/17 02:24:22;;;;;;;5.53;2.23;;;16.40;99.90;;;;;;4991025;28;20294;-89
2021/07/17 02:26:48;;;;;;;4.43;2.60;;;16.40;99.90;;;;;;5014904;28;20225;-87
2021/07/17 02:29:15;;;;;;;7.20;2.77;;;16.50;99.90;;;;;;5014061;28;20194;-88
2021/07/17 02:31:41;;;;;;;10.17;3.73;;;16.50;99.90;;;;;;5005622;28;20760;-86
2021/07/17 02:34:09;;;;;;;5.87;3.00;;;16.50;99.90;;;;;;5013703;28;20235;-86
2021/07/17 02:36:35;;;;;;;7.97;2.63;;;16.40;99.90;;;;;;5014635;28;20634;-88
2021/07/17 02:39:01;;;;;;;12.30;3.27;;;16.50;99.90;;;;;;5006812;28;20221;-87
2021/07/17 02:41:27;;;;;;;9.63;2.87;;;16.40;99.90;;;;;;5015074;28;21175;-88
2021/07/17 02:43:54;;;;;;;14.60;3.00;;;16.40;99.90;;;;;;4991221;28;20186;-87
2021/07/17 02:46:20;;;;;;;3.97;2.57;;;16.50;99.90;;;;;;5006390;28;20215;-86
2021/07/17 02:48:46;;;;;;;10.07;3.53;;;16.50;99.90;;;;;;5015103;28;20215;-86
2021/07/17 02:51:12;;;;;;;4.23;2.00;;;16.50;99.90;;;;;;5013994;28;20765;-86
2021/07/17 02:53:38;;;;;;;3.00;2.20;;;16.50;99.90;;;;;;4990328;28;20194;-88
2021/07/17 02:56:05;;;;;;;12.27;2.47;;;16.50;99.90;;;;;;4991534;28;20289;-86
2021/07/17 02:58:31;;;;;;;6.37;2.23;;;16.50;99.90;;;;;;5007037;28;20281;-87
2021/07/17 03:00:56;;;;;;;6.00;2.77;;;16.50;99.90;;;;;;5007388;28;20797;-87
2021/07/17 03:03:23;;;;;;;6.77;3.00;;;16.50;99.90;;;;;;4999391;28;20219;-86
2021/07/17 03:05:49;;;;;;;3.13;2.20;;;16.50;99.90;;;;;;5005908;28;20230;-87
2021/07/17 03:08:22;;;;;;;12.10;2.30;;;16.50;99.90;;;;;;5015047;28;20195;-87
2021/07/17 03:10:50;;;;;;;6.77;3.07;;;16.50;99.90;;;;;;5012245;28;20306;-88
2021/07/17 03:13:15;;;;;;;6.33;2.30;;;16.50;99.90;;;;;;5014541;28;20272;-87
2021/07/17 03:15:42;;;;;;;10.07;2.13;;;16.40;99.90;;;;;;5006480;28;20207;-89
2021/07/17 03:18:08;;;;;;;7.90;1.77;;;16.40;99.90;;;;;;5006368;28;20687;-88
2021/07/17 03:20:34;;;;;;;6.50;2.10;;;16.40;99.90;;;;;;5014963;28;20215;-87
2021/07/17 03:23:00;;;;;;;10.73;2.93;;;16.40;99.90;;;;;;5013698;28;20604;-90
2021/07/17 03:25:26;;;;;;;6.67;3.03;;;16.40;99.90;;;;;;4990049;28;20234;-87
2021/07/17 03:27:51;;;;;;;4.10;2.23;;;16.40;99.90;;;;;;5015700;28;20298;-87
2021/07/17 03:30:18;;;;;;;14.53;3.00;;;16.40;99.90;;;;;;4993837;28;20290;-87
2021/07/17 03:32:43;;;;;;;3.60;2.43;;;16.40;99.90;;;;;;4994091;28;21704;-88
2021/07/17 03:35:09;;;;;;;5.57;2.23;;;16.40;99.90;;;;;;5010126;28;20930;-88
2021/07/17 03:37:35;;;;;;;7.67;2.43;;;16.40;99.90;;;;;;4992964;28;20222;-87
2021/07/17 03:40:03;;;;;;;4.63;3.00;;;16.40;99.90;;;;;;5016845;28;20218;-87
2021/07/17 03:42:28;;;;;;;5.67;2.57;;;16.40;99.90;;;;;;5016012;28;20210;-89
2021/07/17 03:44:54;;;;;;;14.13;2.60;;;16.40;99.90;;;;;;5002475;28;20223;-87
2021/07/17 03:47:20;;;;;;;9.67;2.03;;;16.40;99.90;;;;;;5002062;28;20237;-87
2021/07/17 03:49:46;;;;;;;4.60;2.30;;;16.40;99.90;;;;;;5009135;28;20258;-86
2021/07/17 03:52:11;;;;;;;4.13;1.50;;;16.40;99.90;;;;;;4993290;28;20619;-86
2021/07/17 03:54:37;;;;;;;4.47;2.40;;;16.40;99.90;;;;;;5008760;28;20215;-88
2021/07/17 03:57:03;;;;;;;4.20;2.33;;;16.40;99.90;;;;;;5003814;28;20240;-87
2021/07/17 03:59:29;;;;;;;10.20;2.40;;;16.40;99.90;;;;;;5017320;28;20187;-88
2021/07/17 04:01:55;;;;;;;6.27;2.03;;;16.40;99.90;;;;;;4994297;28;20805;-87
2021/07/17 04:04:21;;;;;;;6.20;2.57;;;16.40;99.90;;;;;;4993043;28;20280;-86
2021/07/17 04:06:46;;;;;;;9.30;1.73;;;16.50;99.90;;;;;;4993395;28;20284;-86
2021/07/17 04:09:12;;;;;;;4.60;2.00;;;16.50;99.90;;;;;;5008688;28;20589;-89
2021/07/17 04:11:38;;;;;;;7.17;2.13;;;16.50;99.90;;;;;;5001583;28;20206;-88
2021/07/17 04:14:04;;;;;;;4.90;2.40;;;16.50;99.90;;;;;;5001710;28;20195;-88
2021/07/17 04:16:30;;;;;;;7.33;2.70;;;16.50;99.90;;;;;;5009737;28;20215;-87
2021/07/17 04:18:55;;;;;;;14.10;2.60;;;16.50;99.90;;;;;;4992577;28;20250;-86
2021/07/17 04:21:21;;;;;;;3.50;2.50;;;16.60;99.90;;;;;;5009006;28;20211;-88
2021/07/17 04:23:47;;;;;;;9.73;1.77;;;16.60;99.90;;;;;;5017774;28;20211;-87
2021/07/17 04:26:13;;;;;;;5.50;3.07;;;16.60;99.90;;;;;;5010822;28;20298;-88
2021/07/17 04:28:38;;;;;;;5.03;2.43;;;16.60;99.90;;;;;;5008460;28;20211;-87
2021/07/17 04:31:05;;;;;;;12.17;2.77;;;16.70;99.90;;;;;;5020641;28;20225;-87
2021/07/17 04:33:31;;;;;;;2.23;1.87;;;16.70;99.90;;;;;;5018498;28;20286;-87
2021/07/17 04:35:57;;;;;;;8.10;2.63;;;16.70;99.90;;;;;;5020346;28;20206;-89
2021/07/17 04:38:23;;;;;;;5.00;2.40;;;16.70;99.90;;;;;;5017999;28;20210;-88
2021/07/17 04:40:48;;;;;;;3.63;1.87;;;16.80;99.90;;;;;;4993531;28;20211;-88
2021/07/17 04:43:14;;;;;;;5.97;1.93;;;16.80;99.90;;;;;;5009165;28;20221;-89
2021/07/17 04:45:40;;;;;;;4.77;2.50;;;16.90;99.90;;;;;;4991913;28;20227;-87
2021/07/17 04:48:06;;;;;;;3.33;2.30;;;16.90;99.90;;;;;;4993065;28;20210;-87
2021/07/17 04:50:34;;;;;;;6.53;2.90;;;16.90;99.90;;;;;;5015463;28;20179;-88
2021/07/17 04:53:00;;;;;;;4.87;2.33;;;17.00;99.90;;;;;;5021040;28;20258;-88
2021/07/17 04:55:26;;;;;;;4.87;2.13;;;17.00;99.90;;;;;;5015653;28;20207;-87
2021/07/17 04:57:52;;;;;;;9.50;3.07;;;17.10;99.90;;;;;;5008431;28;21367;-88
2021/07/17 05:00:19;;;;;;;3.00;2.43;;;17.20;99.90;;;;;;5009155;28;20707;-87
2021/07/17 05:02:51;;;;;;;6.40;2.40;;;17.20;99.90;;;;;;5016579;28;20214;-88
2021/07/17 05:05:18;;;;;;;4.50;2.23;;;17.30;99.90;;;;;;5018528;28;20221;-88
2021/07/17 05:07:48;;;;;;;2.53;2.03;;;17.30;99.90;;;;;;4999701;28;20226;-88
2021/07/17 05:10:16;;;;;;;6.27;3.43;;;17.30;99.90;;;;;;5017283;28;20222;-89
2021/07/17 05:12:42;;;;;;;10.77;3.33;;;17.40;99.90;;;;;;5016871;28;20714;-87
2021/07/17 05:15:10;;;;;;;25.00;3.57;;;17.40;99.90;;;;;;5007937;28;20217;-88
2021/07/17 05:17:36;;;;;;;4.00;2.83;;;17.50;99.90;;;;;;5016371;28;20190;-88
2021/07/17 05:20:04;;;;;;;3.53;2.07;;;17.60;99.90;;;;;;5016262;28;20207;-89
2021/07/17 05:22:30;;;;;;;5.90;2.73;;;17.70;99.90;;;;;;4999664;28;20218;-89
2021/07/17 05:24:56;;;;;;;11.07;3.30;;;17.80;99.90;;;;;;5013913;28;20319;-89
2021/07/17 05:27:22;;;;;;;6.10;2.80;;;18.10;99.90;;;;;;4992157;28;20317;-91
2021/07/17 05:29:48;;;;;;;10.43;3.60;;;19.00;99.90;;;;;;5008795;28;20211;-87
2021/07/17 05:32:14;;;;;;;8.07;2.73;;;19.60;99.90;;;;;;4991817;28;20191;-86
2021/07/17 05:34:40;;;;;;;10.90;2.17;;;19.90;99.90;;;;;;5007829;28;20234;-90
2021/07/17 05:37:10;;;;;;;6.00;2.80;;;20.40;99.90;;;;;;4992051;28;20581;-88
2021/07/17 05:39:37;;;;;;;2.57;2.20;;;21.10;99.90;;;;;;5016357;28;20221;-90
2021/07/17 05:42:04;;;;;;;13.80;3.70;;;21.50;99.90;;;;;;5018254;28;21058;-89
2021/07/17 05:44:30;;;;;;;5.03;1.93;;;21.40;99.90;;;;;;5008852;28;20190;-88
2021/07/17 05:46:56;;;;;;;5.70;2.43;;;21.80;99.90;;;;;;5008248;28;20222;-88
2021/07/17 05:49:22;;;;;;;5.07;1.93;;;22.50;99.90;;;;;;5007736;28;20207;-88
2021/07/17 05:51:48;;;;;;;4.10;2.27;;;21.90;99.90;;;;;;4992297;28;20210;-88
2021/07/17 05:54:14;;;;;;;5.97;2.40;;;22.10;99.90;;;;;;5015395;28;20226;-88
2021/07/17 05:56:40;;;;;;;5.70;2.10;;;22.70;99.90;;;;;;5018018;28;20651;-89
2021/07/17 05:59:05;;;;;;;4.80;2.73;;;23.30;99.90;;;;;;5008230;28;20246;-91
2021/07/17 06:01:31;;;;;;;12.18;2.60;;;23.60;99.90;;;;;;4991717;28;20321;-88
2021/07/17 06:03:57;;;;;;;13.75;2.63;;;23.50;99.90;;;;;;5007589;28;20305;-89
2021/07/17 06:06:23;;;;;;;4.72;2.25;;;22.30;99.90;;;;;;4989900;28;20258;-86
2021/07/17 06:08:49;;;;;;;6.60;2.20;;;21.70;99.90;;;;;;5007731;28;20749;-89
2021/07/17 06:11:15;;;;;;;4.50;2.55;;;22.20;99.90;;;;;;4992375;28;20190;-88
2021/07/17 06:13:41;;;;;;;6.93;2.50;;;22.20;99.90;;;;;;5007531;28;20215;-88
2021/07/17 06:16:06;;;;;;;6.45;2.55;;;22.50;99.90;;;;;;4994219;28;20214;-89
2021/07/17 06:18:32;;;;;;;3.20;1.80;;;22.00;99.90;;;;;;4996647;28;20276;-89
2021/07/17 06:20:59;;;;;;;6.47;2.55;;;22.20;99.90;;;;;;4990289;28;20713;-86
2021/07/17 06:23:25;;;;;;;6.88;2.00;;;22.10;99.90;;;;;;5016215;28;20554;-86
2021/07/17 06:25:51;;;;;;;4.43;3.03;;;21.60;99.90;;;;;;5006297;28;20206;-87
2021/07/17 06:28:17;;;;;;;6.05;2.30;;;22.10;99.90;;;;;;5006114;28;20570;-88
2021/07/17 06:30:42;;;;;;;7.32;3.60;;;22.40;99.90;;;;;;5022437;28;20818;-87
2021/07/17 06:33:08;;;;;;;5.72;2.95;;;23.10;99.90;;;;;;5006643;28;20211;-88
2021/07/17 06:35:34;;;;;;;5.65;2.30;;;24.10;99.90;;;;;;5017957;28;20193;-86
2021/07/17 06:38:00;;;;;;;4.72;2.20;;;24.10;99.90;;;;;;5011684;28;20217;-88
2021/07/17 06:40:25;;;;;;;4.60;2.60;;;23.30;99.90;;;;;;5017531;28;20222;-88
2021/07/17 06:42:51;;;;;;;4.45;2.70;;;23.70;99.90;;;;;;4992865;28;20225;-88
2021/07/17 06:45:18;;;;;;;4.93;2.83;;;23.70;99.90;;;;;;5018018;28;20792;-87
2021/07/17 06:47:45;;;;;;;3.75;2.35;;;24.30;99.90;;;;;;5036883;28;20233;-89
2021/07/17 06:50:12;;;;;;;6.47;2.55;;;25.00;99.90;;;;;;5011591;28;20222;-88
2021/07/17 06:52:39;;;;;;;6.38;2.65;;;25.40;99.90;;;;;;5016437;28;20780;-86
2021/07/17 06:55:06;;;;;;;5.30;2.50;;;25.10;99.90;;;;;;4999954;28;20719;-88
2021/07/17 06:57:35;;;;;;;4.97;2.13;;;25.80;99.90;;;;;;4992743;28;20422;-86
2021/07/17 07:00:01;;;;;;;5.28;2.65;;;25.60;99.90;;;;;;5002612;28;20366;-87
2021/07/17 07:02:27;;;;;;;3.33;2.20;;;26.70;99.90;;;;;;4992747;28;20240;-86
2021/07/17 07:04:53;;;;;;;4.75;2.45;;;25.90;99.90;;;;;;5011165;28;20190;-88
2021/07/17 07:07:18;;;;;;;3.97;2.58;;;26.80;99.90;;;;;;5001781;28;20219;-86
2021/07/17 07:09:44;;;;;;;5.90;2.10;;;27.20;99.90;;;;;;4993143;28;20213;-87
2021/07/17 07:12:10;;;;;;;6.05;2.60;;;27.40;99.90;;;;;;4994431;28;20722;-86
2021/07/17 07:14:36;;;;;;;9.30;2.28;;;25.50;99.90;;;;;;5003784;28;20189;-87
2021/07/17 07:17:01;;;;;;;4.03;1.98;;;26.00;99.90;;;;;;5010066;28;20186;-88
2021/07/17 07:19:27;;;;;;;4.07;1.98;;;27.10;99.90;;;;;;4995142;28;20213;-87
2021/07/17 07:21:54;;;;;;;3.05;2.30;;;27.20;99.90;;;;;;5003194;28;20251;-87
2021/07/17 07:24:20;;;;;;;6.18;2.45;;;26.70;99.90;;;;;;5010190;28;20217;-88
2021/07/17 07:26:46;;;;;;;4.13;1.90;;;27.50;99.90;;;;;;5001298;28;20286;-88
2021/07/17 07:29:13;;;;;;;2.90;1.98;;;26.60;99.90;;;;;;4994169;28;20198;-88
2021/07/17 07:31:39;;;;;;;2.80;1.52;;;27.20;99.90;;;;;;5001191;28;20210;-87
2021/07/17 07:34:05;;;;;;;4.55;1.77;;;24.70;99.90;;;;;;4993700;28;20218;-86
2021/07/17 07:36:31;;;;;;;3.90;2.30;;;24.30;99.90;;;;;;5009143;28;20230;-88
2021/07/17 07:38:57;;;;;;;4.55;2.05;;;25.70;99.90;;;;;;4993179;28;20210;-85
2021/07/17 07:41:23;;;;;;;2.10;1.80;;;26.20;99.90;;;;;;5010505;28;20182;-86
2021/07/17 07:43:49;;;;;;;5.15;2.05;;;26.90;99.90;;;;;;5001263;28;20265;-85
2021/07/17 07:46:15;;;;;;;4.97;1.83;;;26.70;99.90;;;;;;5008925;28;20235;-87
2021/07/17 07:48:42;;;;;;;4.45;1.88;;;26.50;99.90;;;;;;5019794;28;20215;-86
2021/07/17 07:51:11;;;;;;;10.23;2.22;;;25.70;99.90;;;;;;4992856;28;20220;-86
2021/07/17 07:53:37;;;;;;;8.50;2.00;;;26.70;99.90;;;;;;5032909;28;20178;-87
2021/07/17 07:56:03;;;;;;;9.88;2.10;;;25.50;99.90;;;;;;5010787;28;20229;-86
2021/07/17 07:58:30;;;;;;;3.22;1.60;;;26.00;99.90;;;;;;5004187;28;20218;-87
2021/07/17 08:00:56;;;;;;;1.73;1.40;;;26.90;99.90;;;;;;5018649;28;20215;-87
2021/07/17 08:03:21;;;;;;;4.22;1.95;;;26.30;99.90;;;;;;5018655;28;20241;-87
2021/07/17 08:05:47;;;;;;;2.95;1.60;;;26.40;99.90;;;;;;4993166;28;20230;-86
2021/07/17 08:08:13;;;;;;;5.82;2.20;;;26.90;99.90;;;;;;5019752;28;20215;-86
2021/07/17 08:10:39;;;;;;;3.47;1.65;;;28.10;99.90;;;;;;5008010;28;20368;-86
2021/07/17 08:13:04;;;;;;;4.28;1.42;;;28.30;99.90;;;;;;4993276;28;20218;-85
2021/07/17 08:15:31;;;;;;;3.35;1.70;;;28.40;99.90;;;;;;5012762;28;20588;-85
2021/07/17 08:17:57;;;;;;;3.50;1.50;;;29.00;99.90;;;;;;5013669;28;20225;-86
2021/07/17 08:20:24;;;;;;;4.80;1.40;;;28.70;99.90;;;;;;5004017;28;20554;-86
2021/07/17 08:22:50;;;;;;;4.25;1.90;;;27.70;99.90;;;;;;5020343;28;20663;-87
2021/07/17 08:25:16;;;;;;;4.82;1.63;;;26.20;99.90;;;;;;5019713;28;20218;-87
2021/07/17 08:27:42;;;;;;;4.45;1.55;;;26.40;99.90;;;;;;5020938;28;20241;-86
2021/07/17 08:30:10;;;;;;;1.85;1.35;;;27.20;99.90;;;;;;5013484;28;20585;-87
2021/07/17 08:32:37;;;;;;;5.47;1.73;;;27.50;99.90;;;;;;5006682;28;20245;-87
2021/07/17 08:35:04;;;;;;;3.60;1.50;;;27.10;99.90;;;;;;5014301;28;20230;-90
2021/07/17 08:37:29;;;;;;;4.38;1.70;;;26.70;99.90;;;;;;5012688;28;20210;-88
2021/07/17 08:39:55;;;;;;;3.33;1.60;;;26.60;99.90;;;;;;5022899;28;20205;-92
2021/07/17 08:42:25;;;;;;;2.83;1.50;;;26.90;99.90;;;;;;4996225;28;20238;-87
2021/07/17 08:44:54;;;;;;;3.67;1.60;;;27.40;99.90;;;;;;5013714;28;20216;-87
2021/07/17 08:47:21;;;;;;;4.55;1.80;;;26.60;99.90;;;;;;5039346;28;20203;-87
2021/07/17 08:49:47;;;;;;;3.60;1.85;;;26.50;99.90;;;;;;5011742;28;20210;-89
2021/07/17 08:52:13;;;;;;;5.88;1.40;;;25.90;99.90;;;;;;5012416;28;20210;-85
2021/07/17 08:54:40;;;;;;;3.42;1.75;;;25.70;99.90;;;;;;5012396;28;20674;-88
2021/07/17 08:57:12;;;;;;;8.77;1.50;;;25.90;99.90;;;;;;5021304;28;21307;-86
2021/07/17 08:59:39;;;;;;;4.00;1.80;;;25.50;99.90;;;;;;5001841;28;20225;-87
2021/07/17 09:02:06;;;;;;;7.82;2.65;;;24.40;99.90;;;;;;5019965;28;20183;-87
2021/07/17 09:04:32;;;;;;;4.25;2.15;;;25.00;99.90;;;;;;4994988;28;20234;-88
2021/07/17 09:06:58;;;;;;;3.42;1.58;;;26.10;99.90;;;;;;4995995;28;20214;-87
2021/07/17 09:09:34;;;;;;;2.33;1.13;;;26.50;99.90;;;;;;5012652;28;20260;-88
2021/07/17 09:12:00;;;;;;;6.82;2.42;;;26.60;99.90;;;;;;5003519;28;20305;-86
2021/07/17 09:14:43;;;;;;;3.83;1.92;;;25.90;99.90;;;;;;5022661;28;20269;-87
2021/07/17 09:17:09;;;;;;;7.28;1.65;;;25.80;99.90;;;;;;5019731;28;20531;-88
2021/07/17 09:19:50;;;;;;;1.45;1.33;;;26.10;99.90;;;;;;5011286;28;20321;-87
2021/07/17 09:22:39;;;;;;;8.18;1.33;;;26.50;99.90;;;;;;5019622;28;20269;-87
2021/07/17 09:25:18;;;;;;;2.75;1.45;;;25.80;99.90;;;;;;5019488;28;20311;-86
2021/07/17 09:27:45;;;;;;;5.95;3.13;;;25.50;99.90;;;;;;5037362;28;20624;-89
2021/07/17 09:30:26;;;;;;;4.03;2.13;;;25.30;99.90;;;;;;5011694;28;20232;-87
2021/07/17 09:33:03;;;;;;;8.45;2.33;;;25.70;99.90;;;;;;5020325;28;20288;-87
2021/07/17 09:35:29;;;;;;;4.40;1.52;;;25.30;99.90;;;;;;5037748;28;20230;-87
2021/07/17 09:37:56;;;;;;;5.95;1.77;;;25.70;99.90;;;;;;5040349;28;20186;-86
2021/07/17 09:40:25;;;;;;;5.78;2.13;;;25.70;99.90;;;;;;5021416;28;20341;-87
2021/07/17 09:42:51;;;;;;;2.65;1.67;;;26.00;99.90;;;;;;5011791;28;20259;-87
2021/07/17 09:45:41;;;;;;;1.90;1.58;;;25.40;99.90;;;;;;5011531;28;20213;-88
2021/07/17 09:48:27;;;;;;;3.53;1.88;;;24.90;99.90;;;;;;5020124;28;20228;-88
2021/07/17 09:50:54;;;;;;;3.22;1.10;;;25.20;99.90;;;;;;5035932;28;20792;-89
2021/07/17 09:53:47;;;;;;;6.25;1.48;;;25.10;99.90;;;;;;4995827;28;20187;-87
2021/07/17 09:56:15;;;;;;;2.55;1.42;;;25.40;99.90;;;;;;5019002;28;20631;-87
2021/07/17 09:58:42;;;;;;;5.28;1.50;;;25.50;99.90;;;;;;5018191;28;20214;-86
2021/07/17 10:01:16;;;;;;;3.13;1.05;;;25.60;99.90;;;;;;5018950;28;20248;-87
2021/07/17 10:03:42;;;;;;;2.75;1.30;;;26.10;99.90;;;;;;5036058;28;20256;-86
2021/07/17 10:06:09;;;;;;;2.88;1.35;;;25.50;99.90;;;;;;5002306;28;20225;-87
2021/07/17 10:08:35;;;;;;;1.85;1.50;;;25.60;99.90;;;;;;5018822;28;20232;-86
2021/07/17 10:11:14;;;;;;;1.40;1.13;;;26.00;99.90;;;;;;5010312;28;20307;-86
2021/07/17 10:13:40;;;;;;;4.03;1.40;;;25.30;99.90;;;;;;5011447;28;20233;-86
2021/07/17 10:16:26;;;;;;;2.92;1.40;;;25.00;99.90;;;;;;5017525;28;20210;-86
2021/07/17 10:18:54;;;;;;;1.15;1.05;;;24.90;99.90;;;;;;5034694;28;20222;-86
2021/07/17 10:21:21;;;;;;;2.63;1.05;;;24.30;99.90;;;;;;5001589;28;20277;-86
2021/07/17 10:23:47;;;;;;;1.08;0.95;;;24.30;99.90;;;;;;5001098;28;20702;-86
2021/07/17 10:26:14;;;;;;;3.47;1.20;;;24.80;99.90;;;;;;5009335;28;20220;-86
2021/07/17 10:28:40;;;;;;;1.98;1.20;;;24.90;99.90;;;;;;5017298;28;20214;-85
2021/07/17 10:31:07;;;;;;;3.33;1.40;;;25.00;99.90;;;;;;5017672;28;20674;-86
2021/07/17 10:33:35;;;;;;;3.42;1.20;;;25.20;99.90;;;;;;5010209;28;20724;-86
2021/07/17 10:36:14;;;;;;;1.38;1.05;;;25.40;99.90;;;;;;5017431;28;20219;-85
2021/07/17 10:38:43;;;;;;;1.23;1.13;;;24.90;99.90;;;;;;5018020;28;20190;-86
2021/07/17 10:41:13;;;;;;;2.80;1.10;;;24.30;99.90;;;;;;5036791;28;20197;-87
2021/07/17 10:43:40;;;;;;;2.03;1.10;;;24.80;99.90;;;;;;5020439;28;20206;-85
2021/07/17 10:46:26;;;;;;;2.50;1.48;;;24.80;99.90;;;;;;5002793;28;20218;-87
2021/07/17 10:48:53;;;;;;;4.15;1.33;;;24.40;99.90;;;;;;5019954;28;20205;-86
2021/07/17 10:51:29;;;;;;;1.13;0.98;;;24.80;99.90;;;;;;5010076;28;20226;-88
2021/07/17 10:53:58;;;;;;;0.82;0.70;;;24.30;99.90;;;;;;5036913;28;20242;-89
2021/07/17 10:56:30;;;;;;;2.67;1.02;;;24.40;99.90;;;;;;5010456;28;20185;-89
2021/07/17 10:58:57;;;;;;;2.33;1.00;;;24.50;99.90;;;;;;5035211;28;20770;-90
2021/07/17 11:01:24;;;;;;;3.72;1.00;;;24.60;99.90;;;;;;5010962;28;20271;-87
2021/07/17 11:03:51;;;;;;;0.80;0.75;;;24.40;99.90;;;;;;5020287;28;20717;-88
2021/07/17 11:06:31;;;;;;;3.70;0.88;;;24.70;99.90;;;;;;5035689;28;20223;-87
2021/07/17 11:09:24;;;;;;;1.38;1.00;;;24.90;99.90;;;;;;5018732;28;20214;-86
2021/07/17 11:11:50;;;;;;;0.90;0.75;;;24.70;99.90;;;;;;5009544;28;20217;-87
2021/07/17 11:14:15;;;;;;;0.98;0.90;;;25.10;99.90;;;;;;5009555;28;20191;-87
2021/07/17 11:16:44;;;;;;;1.50;0.95;;;24.90;99.90;;;;;;5015434;28;20245;-90
2021/07/17 11:19:17;;;;;;;0.75;0.75;;;24.70;99.90;;;;;;5017718;28;20225;-87
2021/07/17 11:21:43;;;;;;;2.38;0.88;;;24.40;99.90;;;;;;5017744;28;20221;-86
2021/07/17 11:24:11;;;;;;;1.75;0.88;;;24.10;99.90;;;;;;5008994;28;20214;-87
2021/07/17 11:26:37;;;;;;;1.13;0.88;;;24.30;99.90;;;;;;5016131;28;20210;-88
2021/07/17 11:29:14;;;;;;;2.50;1.02;;;24.40;99.90;;;;;;5016528;28;20186;-86
2021/07/17 11:31:43;;;;;;;3.03;1.20;;;24.10;99.90;;;;;;5019194;28;20201;-86
2021/07/17 11:34:20;;;;;;;2.70;0.90;;;23.90;99.90;;;;;;5017858;28;20320;-86
2021/07/17 11:36:49;;;;;;;3.05;1.08;;;24.00;99.90;;;;;;5017211;28;20217;-87
2021/07/17 11:39:18;;;;;;;0.75;0.75;;;24.00;99.90;;;;;;5036016;28;20729;-87
2021/07/17 11:41:44;;;;;;;1.75;0.90;;;23.50;99.90;;;;;;5017300;28;20711;-87
2021/07/17 11:44:10;;;;;;;1.10;1.00;;;23.60;99.90;;;;;;5011802;28;20198;-86
2021/07/17 11:46:35;;;;;;;1.67;0.88;;;24.30;99.90;;;;;;5000547;28;20826;-88
2021/07/17 11:49:01;;;;;;;1.45;1.20;;;24.20;99.90;;;;;;5010273;28;20210;-87
2021/07/17 11:51:27;;;;;;;1.50;1.00;;;24.00;99.90;;;;;;5023905;28;20211;-85
2021/07/17 11:53:57;;;;;;;1.83;0.80;;;24.10;99.90;;;;;;4996966;28;20352;-84
2021/07/17 11:56:23;;;;;;;2.10;0.98;;;23.80;99.90;;;;;;5022138;28;20193;-88
2021/07/17 11:58:49;;;;;;;3.67;1.05;;;23.90;99.90;;;;;;5012675;28;20214;-85
2021/07/17 12:01:16;;;;;;;7.20;1.42;;;23.70;99.90;;;;;;5012894;28;20214;-86
2021/07/17 12:03:53;;;;;;;2.30;1.00;;;23.70;99.90;;;;;;5022683;28;20894;-84
2021/07/17 12:06:25;;;;;;;1.00;0.90;;;23.70;99.90;;;;;;5012009;28;20222;-85
2021/07/17 12:08:51;;;;;;;1.92;1.23;;;23.80;99.90;;;;;;5013299;28;20620;-85
2021/07/17 12:11:18;;;;;;;0.75;0.75;;;23.40;99.90;;;;;;5023041;28;20265;-86
2021/07/17 12:13:43;;;;;;;1.20;1.10;;;23.30;99.90;;;;;;5012268;28;20214;-86
2021/07/17 12:16:22;;;;;;;0.98;0.88;;;23.30;99.90;;;;;;4996387;28;20215;-85
2021/07/17 12:18:53;;;;;;;2.42;1.02;;;23.50;99.90;;;;;;4997181;28;20697;-87
2021/07/17 12:21:18;;;;;;;2.20;1.35;;;23.80;99.90;;;;;;5013326;28;20210;-87
2021/07/17 12:23:56;;;;;;;2.55;1.40;;;23.60;99.90;;;;;;4996438;28;20353;-85
2021/07/17 12:26:23;;;;;;;5.60;1.08;;;23.80;99.90;;;;;;5023835;28;20569;-86
2021/07/17 12:28:54;;;;;;;2.25;1.00;;;23.80;99.90;;;;;;5018871;28;20269;-86
2021/07/17 12:31:20;;;;;;;3.38;1.10;;;23.60;99.90;;;;;;5022051;28;20297;-85
2021/07/17 12:33:47;;;;;;;1.63;1.10;;;23.10;99.90;;;;;;4994825;28;20698;-87
2021/07/17 12:36:21;;;;;;;3.85;1.27;;;23.10;99.90;;;;;;5020089;28;20247;-86
2021/07/17 12:38:55;;;;;;;6.00;1.48;;;23.30;99.90;;;;;;5038390;28;21032;-86
2021/07/17 12:41:32;;;;;;;2.22;1.25;;;23.20;99.90;;;;;;5004233;28;20201;-86
2021/07/17 12:44:07;;;;;;;0.95;0.80;;;23.40;99.90;;;;;;5020104;28;20271;-86
2021/07/17 12:46:37;;;;;;;1.85;1.40;;;23.30;99.90;;;;;;5032964;28;20301;-85
2021/07/17 12:49:07;;;;;;;2.38;0.90;;;23.70;99.90;;;;;;5022028;28;20203;-87